Bethany, Mississippi
Current Conditions -  °F | °C
As of 4:53 PM on Tuesday 21 Oct 2014 (Local Time) from KTUP Reporting Station
Clear Clear  
Wind Chill: 74°   Ceiling: Unl
Heat Index: 74°   Visibility: 10mi
Dew Point: 46°   Wind: 10mph
Humidity: 37%   Direction: 20°NNE
Pressure: 30.02"   Gusts: NA
Location:  34.5357°N, 88.6348°W
Report Text: KTUP 212153Z AUTO 02009KT 10SM CLR 23/08 A3002 RMK AO2 SLP163 T02330078 PWINO
Loading
Personal Weather Stations






























Interactive Weather Map
Tropical Storm Tracking
New forecast layout! Learn more

10-Day Weather Forecast

Advertisements
Track Severe Weather on mobile